sensor_id;sensor_type;location;lat;lon;timestamp;temperature;humidity
39021;DHT22;25188;51.958;5.842;2023-12-29T00:02:13;11.30;93.50
39021;DHT22;25188;51.958;5.842;2023-12-29T00:04:38;11.40;93.60
39021;DHT22;25188;51.958;5.842;2023-12-29T00:07:04;11.40;93.50
39021;DHT22;25188;51.958;5.842;2023-12-29T00:09:30;11.40;93.50
39021;DHT22;25188;51.958;5.842;2023-12-29T00:11:55;11.40;93.50
39021;DHT22;25188;51.958;5.842;2023-12-29T00:14:24;11.40;93.40
39021;DHT22;25188;51.958;5.842;2023-12-29T00:16:51;11.40;93.50
39021;DHT22;25188;51.958;5.842;2023-12-29T00:19:17;11.40;93.40
39021;DHT22;25188;51.958;5.842;2023-12-29T00:21:43;11.40;93.30
39021;DHT22;25188;51.958;5.842;2023-12-29T00:24:08;11.40;93.40
39021;DHT22;25188;51.958;5.842;2023-12-29T00:26:34;11.40;93.40
39021;DHT22;25188;51.958;5.842;2023-12-29T00:29:00;11.40;93.50
39021;DHT22;25188;51.958;5.842;2023-12-29T00:31:26;11.40;93.90
39021;DHT22;25188;51.958;5.842;2023-12-29T00:33:53;11.40;94.10
39021;DHT22;25188;51.958;5.842;2023-12-29T00:36:19;11.40;94.30
39021;DHT22;25188;51.958;5.842;2023-12-29T00:38:46;11.30;94.60
39021;DHT22;25188;51.958;5.842;2023-12-29T00:41:12;11.30;94.70
39021;DHT22;25188;51.958;5.842;2023-12-29T00:43:38;11.30;94.70
39021;DHT22;25188;51.958;5.842;2023-12-29T00:46:04;11.20;94.70
39021;DHT22;25188;51.958;5.842;2023-12-29T00:48:34;11.20;94.60
39021;DHT22;25188;51.958;5.842;2023-12-29T00:51:02;11.30;94.60
39021;DHT22;25188;51.958;5.842;2023-12-29T00:53:28;11.20;94.50
39021;DHT22;25188;51.958;5.842;2023-12-29T00:55:59;11.30;94.50
39021;DHT22;25188;51.958;5.842;2023-12-29T00:58:26;11.30;94.40
39021;DHT22;25188;51.958;5.842;2023-12-29T01:00:52;11.30;94.40
39021;DHT22;25188;51.958;5.842;2023-12-29T01:03:18;11.30;94.30
39021;DHT22;25188;51.958;5.842;2023-12-29T01:05:44;11.30;94.30
39021;DHT22;25188;51.958;5.842;2023-12-29T01:08:09;11.30;94.30
39021;DHT22;25188;51.958;5.842;2023-12-29T01:10:35;11.30;94.30
39021;DHT22;25188;51.958;5.842;2023-12-29T01:13:01;11.30;94.30
39021;DHT22;25188;51.958;5.842;2023-12-29T01:15:26;11.30;94.40
39021;DHT22;25188;51.958;5.842;2023-12-29T01:17:54;11.30;94.60
39021;DHT22;25188;51.958;5.842;2023-12-29T01:20:19;11.30;94.70
39021;DHT22;25188;51.958;5.842;2023-12-29T01:22:45;11.30;94.90
39021;DHT22;25188;51.958;5.842;2023-12-29T01:25:11;11.30;95.00
39021;DHT22;25188;51.958;5.842;2023-12-29T01:27:37;11.20;95.20
39021;DHT22;25188;51.958;5.842;2023-12-29T01:30:03;11.20;95.50
39021;DHT22;25188;51.958;5.842;2023-12-29T01:32:29;11.20;95.60
39021;DHT22;25188;51.958;5.842;2023-12-29T01:34:55;11.20;95.70
39021;DHT22;25188;51.958;5.842;2023-12-29T01:37:22;11.20;95.80
39021;DHT22;25188;51.958;5.842;2023-12-29T01:39:47;11.10;95.90
39021;DHT22;25188;51.958;5.842;2023-12-29T01:42:13;11.10;96.00
39021;DHT22;25188;51.958;5.842;2023-12-29T01:44:39;11.10;96.10
39021;DHT22;25188;51.958;5.842;2023-12-29T01:47:11;11.10;96.30
39021;DHT22;25188;51.958;5.842;2023-12-29T01:49:39;11.10;96.30
39021;DHT22;25188;51.958;5.842;2023-12-29T01:52:05;11.10;96.40
39021;DHT22;25188;51.958;5.842;2023-12-29T01:54:34;11.10;96.40
39021;DHT22;25188;51.958;5.842;2023-12-29T01:57:02;11.00;96.40
39021;DHT22;25188;51.958;5.842;2023-12-29T01:59:28;11.00;96.40
39021;DHT22;25188;51.958;5.842;2023-12-29T02:01:57;11.00;96.50
39021;DHT22;25188;51.958;5.842;2023-12-29T02:04:27;11.00;96.50
39021;DHT22;25188;51.958;5.842;2023-12-29T02:06:54;11.00;96.50
39021;DHT22;25188;51.958;5.842;2023-12-29T02:09:20;11.00;96.60
39021;DHT22;25188;51.958;5.842;2023-12-29T02:11:46;11.00;96.70
39021;DHT22;25188;51.958;5.842;2023-12-29T02:14:16;11.00;96.90
39021;DHT22;25188;51.958;5.842;2023-12-29T02:19:40;11.00;97.00
39021;DHT22;25188;51.958;5.842;2023-12-29T02:22:07;11.00;97.20
39021;DHT22;25188;51.958;5.842;2023-12-29T02:24:34;11.00;97.40
39021;DHT22;25188;51.958;5.842;2023-12-29T02:32:38;10.90;98.10
39021;DHT22;25188;51.958;5.842;2023-12-29T02:35:05;10.90;98.50
39021;DHT22;25188;51.958;5.842;2023-12-29T02:37:35;10.80;98.70
39021;DHT22;25188;51.958;5.842;2023-12-29T02:40:01;10.80;98.90
39021;DHT22;25188;51.958;5.842;2023-12-29T02:42:27;10.80;99.30
39021;DHT22;25188;51.958;5.842;2023-12-29T02:44:53;10.80;99.40
39021;DHT22;25188;51.958;5.842;2023-12-29T02:47:18;10.70;99.80
39021;DHT22;25188;51.958;5.842;2023-12-29T02:49:44;10.70;99.90
39021;DHT22;25188;51.958;5.842;2023-12-29T02:52:10;10.70;99.90
39021;DHT22;25188;51.958;5.842;2023-12-29T02:54:36;10.70;99.90
39021;DHT22;25188;51.958;5.842;2023-12-29T02:57:01;10.70;99.90
39021;DHT22;25188;51.958;5.842;2023-12-29T02:59:27;10.70;99.90
39021;DHT22;25188;51.958;5.842;2023-12-29T03:01:53;10.70;99.90
39021;DHT22;25188;51.958;5.842;2023-12-29T03:04:18;10.70;99.90
39021;DHT22;25188;51.958;5.842;2023-12-29T03:06:44;10.70;99.90
39021;DHT22;25188;51.958;5.842;2023-12-29T03:09:10;10.70;99.90
39021;DHT22;25188;51.958;5.842;2023-12-29T03:11:35;10.70;99.90
39021;DHT22;25188;51.958;5.842;2023-12-29T03:14:01;10.70;99.90
39021;DHT22;25188;51.958;5.842;2023-12-29T03:16:27;10.70;99.90
39021;DHT22;25188;51.958;5.842;2023-12-29T03:18:52;10.70;99.90
39021;DHT22;25188;51.958;5.842;2023-12-29T03:21:18;10.70;99.90
39021;DHT22;25188;51.958;5.842;2023-12-29T03:23:44;10.70;99.90
39021;DHT22;25188;51.958;5.842;2023-12-29T03:26:09;10.70;99.90
39021;DHT22;25188;51.958;5.842;2023-12-29T03:28:35;10.80;99.90
39021;DHT22;25188;51.958;5.842;2023-12-29T03:31:01;10.80;99.90
39021;DHT22;25188;51.958;5.842;2023-12-29T03:33:26;10.80;99.90
39021;DHT22;25188;51.958;5.842;2023-12-29T03:35:52;10.80;99.90
39021;DHT22;25188;51.958;5.842;2023-12-29T03:38:18;10.80;99.80
39021;DHT22;25188;51.958;5.842;2023-12-29T03:40:44;10.80;99.60
39021;DHT22;25188;51.958;5.842;2023-12-29T03:43:10;10.80;99.60
39021;DHT22;25188;51.958;5.842;2023-12-29T03:45:35;10.90;99.50
39021;DHT22;25188;51.958;5.842;2023-12-29T03:48:02;10.90;99.30
39021;DHT22;25188;51.958;5.842;2023-12-29T03:50:27;10.90;99.20
39021;DHT22;25188;51.958;5.842;2023-12-29T03:52:54;10.90;99.20
39021;DHT22;25188;51.958;5.842;2023-12-29T03:55:20;11.00;98.80
39021;DHT22;25188;51.958;5.842;2023-12-29T03:57:46;11.00;98.80
39021;DHT22;25188;51.958;5.842;2023-12-29T04:00:13;11.00;98.80
39021;DHT22;25188;51.958;5.842;2023-12-29T04:02:39;11.00;98.50
39021;DHT22;25188;51.958;5.842;2023-12-29T04:05:06;11.00;98.20
39021;DHT22;25188;51.958;5.842;2023-12-29T04:07:32;11.00;98.10
39021;DHT22;25188;51.958;5.842;2023-12-29T04:09:57;11.00;97.80
39021;DHT22;25188;51.958;5.842;2023-12-29T04:12:23;11.10;97.50
39021;DHT22;25188;51.958;5.842;2023-12-29T04:14:49;11.10;97.20
39021;DHT22;25188;51.958;5.842;2023-12-29T04:17:15;11.10;97.20
39021;DHT22;25188;51.958;5.842;2023-12-29T04:19:41;11.10;97.20
39021;DHT22;25188;51.958;5.842;2023-12-29T04:22:07;11.10;97.20
39021;DHT22;25188;51.958;5.842;2023-12-29T04:24:33;11.10;97.10
39021;DHT22;25188;51.958;5.842;2023-12-29T04:26:59;11.10;97.10
39021;DHT22;25188;51.958;5.842;2023-12-29T04:29:25;11.10;96.90
39021;DHT22;25188;51.958;5.842;2023-12-29T04:31:50;11.00;96.70
39021;DHT22;25188;51.958;5.842;2023-12-29T04:34:16;11.00;96.60
39021;DHT22;25188;51.958;5.842;2023-12-29T04:36:42;11.00;96.60
39021;DHT22;25188;51.958;5.842;2023-12-29T04:39:07;11.00;96.60
39021;DHT22;25188;51.958;5.842;2023-12-29T04:41:36;11.00;96.50
39021;DHT22;25188;51.958;5.842;2023-12-29T04:44:01;11.00;96.60
39021;DHT22;25188;51.958;5.842;2023-12-29T04:46:27;11.00;96.40
39021;DHT22;25188;51.958;5.842;2023-12-29T04:48:53;11.00;96.40
39021;DHT22;25188;51.958;5.842;2023-12-29T04:51:19;11.10;96.40
39021;DHT22;25188;51.958;5.842;2023-12-29T04:53:46;11.00;96.30
39021;DHT22;25188;51.958;5.842;2023-12-29T04:56:11;11.00;96.30
39021;DHT22;25188;51.958;5.842;2023-12-29T04:58:37;11.00;96.10
39021;DHT22;25188;51.958;5.842;2023-12-29T05:01:03;11.10;96.30
39021;DHT22;25188;51.958;5.842;2023-12-29T05:03:29;11.10;96.00
39021;DHT22;25188;51.958;5.842;2023-12-29T05:05:55;11.10;95.80
39021;DHT22;25188;51.958;5.842;2023-12-29T05:08:21;11.10;95.80
39021;DHT22;25188;51.958;5.842;2023-12-29T05:10:47;11.10;95.60
39021;DHT22;25188;51.958;5.842;2023-12-29T05:13:13;11.00;95.60
39021;DHT22;25188;51.958;5.842;2023-12-29T05:15:40;11.10;95.60
39021;DHT22;25188;51.958;5.842;2023-12-29T05:18:05;11.10;95.50
39021;DHT22;25188;51.958;5.842;2023-12-29T05:20:31;11.10;95.50
39021;DHT22;25188;51.958;5.842;2023-12-29T05:22:57;11.10;95.40
39021;DHT22;25188;51.958;5.842;2023-12-29T05:25:23;11.10;95.60
39021;DHT22;25188;51.958;5.842;2023-12-29T05:27:50;11.00;95.60
39021;DHT22;25188;51.958;5.842;2023-12-29T05:30:15;11.00;95.50
39021;DHT22;25188;51.958;5.842;2023-12-29T05:32:41;11.00;95.60
39021;DHT22;25188;51.958;5.842;2023-12-29T05:35:07;11.00;95.50
39021;DHT22;25188;51.958;5.842;2023-12-29T05:37:33;11.00;95.60
39021;DHT22;25188;51.958;5.842;2023-12-29T05:39:59;11.00;95.60
39021;DHT22;25188;51.958;5.842;2023-12-29T05:42:24;11.00;95.60
39021;DHT22;25188;51.958;5.842;2023-12-29T05:44:50;10.90;95.60
39021;DHT22;25188;51.958;5.842;2023-12-29T05:47:17;10.90;95.60
39021;DHT22;25188;51.958;5.842;2023-12-29T05:49:43;10.90;95.60
39021;DHT22;25188;51.958;5.842;2023-12-29T05:52:10;10.90;95.50
39021;DHT22;25188;51.958;5.842;2023-12-29T05:54:36;10.90;95.50
39021;DHT22;25188;51.958;5.842;2023-12-29T05:57:02;10.80;95.60
39021;DHT22;25188;51.958;5.842;2023-12-29T05:59:27;10.80;95.70
39021;DHT22;25188;51.958;5.842;2023-12-29T06:01:53;10.80;95.70
39021;DHT22;25188;51.958;5.842;2023-12-29T06:04:19;10.80;95.80
39021;DHT22;25188;51.958;5.842;2023-12-29T06:06:45;10.80;95.80
39021;DHT22;25188;51.958;5.842;2023-12-29T06:09:11;10.70;95.90
39021;DHT22;25188;51.958;5.842;2023-12-29T06:11:37;10.70;96.00
39021;DHT22;25188;51.958;5.842;2023-12-29T06:14:03;10.70;96.00
39021;DHT22;25188;51.958;5.842;2023-12-29T06:16:29;10.80;96.20
39021;DHT22;25188;51.958;5.842;2023-12-29T06:18:56;10.70;96.50
39021;DHT22;25188;51.958;5.842;2023-12-29T06:21:22;10.70;96.30
39021;DHT22;25188;51.958;5.842;2023-12-29T06:23:48;10.70;96.30
39021;DHT22;25188;51.958;5.842;2023-12-29T06:26:22;10.70;96.40
39021;DHT22;25188;51.958;5.842;2023-12-29T06:28:48;10.70;96.50
39021;DHT22;25188;51.958;5.842;2023-12-29T06:31:16;10.70;96.60
39021;DHT22;25188;51.958;5.842;2023-12-29T06:33:43;10.70;96.70
39021;DHT22;25188;51.958;5.842;2023-12-29T06:36:09;10.60;96.70
39021;DHT22;25188;51.958;5.842;2023-12-29T06:38:35;10.60;96.90
39021;DHT22;25188;51.958;5.842;2023-12-29T06:41:02;10.60;97.00
39021;DHT22;25188;51.958;5.842;2023-12-29T06:43:30;10.60;97.10
39021;DHT22;25188;51.958;5.842;2023-12-29T06:45:56;10.60;97.20
39021;DHT22;25188;51.958;5.842;2023-12-29T06:48:22;10.60;97.20
39021;DHT22;25188;51.958;5.842;2023-12-29T06:50:47;10.60;97.40
39021;DHT22;25188;51.958;5.842;2023-12-29T06:53:13;10.70;97.40
39021;DHT22;25188;51.958;5.842;2023-12-29T06:55:41;10.70;97.50
39021;DHT22;25188;51.958;5.842;2023-12-29T06:58:07;10.70;97.70
39021;DHT22;25188;51.958;5.842;2023-12-29T07:00:33;10.70;97.70
39021;DHT22;25188;51.958;5.842;2023-12-29T07:03:00;10.70;97.80
39021;DHT22;25188;51.958;5.842;2023-12-29T07:05:26;10.70;98.30
39021;DHT22;25188;51.958;5.842;2023-12-29T07:07:52;10.70;98.40
39021;DHT22;25188;51.958;5.842;2023-12-29T07:10:18;10.60;98.80
39021;DHT22;25188;51.958;5.842;2023-12-29T07:12:43;10.60;99.30
39021;DHT22;25188;51.958;5.842;2023-12-29T07:15:09;10.50;99.70
39021;DHT22;25188;51.958;5.842;2023-12-29T07:17:35;10.40;99.90
39021;DHT22;25188;51.958;5.842;2023-12-29T07:20:01;10.40;99.90
39021;DHT22;25188;51.958;5.842;2023-12-29T07:22:27;10.30;99.90
39021;DHT22;25188;51.958;5.842;2023-12-29T07:24:53;10.30;99.90
39021;DHT22;25188;51.958;5.842;2023-12-29T07:27:19;10.20;99.90
39021;DHT22;25188;51.958;5.842;2023-12-29T07:29:44;10.10;99.90
39021;DHT22;25188;51.958;5.842;2023-12-29T07:32:10;10.10;99.90
39021;DHT22;25188;51.958;5.842;2023-12-29T07:34:36;10.10;99.90
39021;DHT22;25188;51.958;5.842;2023-12-29T07:37:01;10.00;99.90
39021;DHT22;25188;51.958;5.842;2023-12-29T07:39:28;10.00;99.90
39021;DHT22;25188;51.958;5.842;2023-12-29T07:41:54;9.90;99.90
39021;DHT22;25188;51.958;5.842;2023-12-29T07:44:19;10.00;99.90
39021;DHT22;25188;51.958;5.842;2023-12-29T07:46:45;10.00;99.90
39021;DHT22;25188;51.958;5.842;2023-12-29T07:49:11;10.00;99.90
39021;DHT22;25188;51.958;5.842;2023-12-29T07:51:41;9.90;99.90
39021;DHT22;25188;51.958;5.842;2023-12-29T07:54:07;9.90;99.90
39021;DHT22;25188;51.958;5.842;2023-12-29T07:56:33;9.90;99.90
39021;DHT22;25188;51.958;5.842;2023-12-29T07:59:00;9.90;99.90
39021;DHT22;25188;51.958;5.842;2023-12-29T08:01:26;9.90;99.90
39021;DHT22;25188;51.958;5.842;2023-12-29T08:03:52;9.90;99.90
39021;DHT22;25188;51.958;5.842;2023-12-29T08:06:18;9.90;99.90
39021;DHT22;25188;51.958;5.842;2023-12-29T08:08:44;9.90;99.90
39021;DHT22;25188;51.958;5.842;2023-12-29T08:11:13;9.90;99.90
39021;DHT22;25188;51.958;5.842;2023-12-29T08:13:40;9.90;99.90
39021;DHT22;25188;51.958;5.842;2023-12-29T08:16:06;9.90;99.90
39021;DHT22;25188;51.958;5.842;2023-12-29T08:18:33;9.90;99.90
39021;DHT22;25188;51.958;5.842;2023-12-29T08:20:59;9.90;99.90
39021;DHT22;25188;51.958;5.842;2023-12-29T08:23:25;9.90;99.90
39021;DHT22;25188;51.958;5.842;2023-12-29T08:25:56;9.90;99.90
39021;DHT22;25188;51.958;5.842;2023-12-29T08:28:22;9.90;99.90
39021;DHT22;25188;51.958;5.842;2023-12-29T08:30:48;9.90;99.90
39021;DHT22;25188;51.958;5.842;2023-12-29T08:33:14;10.00;99.90
39021;DHT22;25188;51.958;5.842;2023-12-29T08:35:40;10.00;99.90
39021;DHT22;25188;51.958;5.842;2023-12-29T08:38:06;10.00;99.90
39021;DHT22;25188;51.958;5.842;2023-12-29T08:40:32;10.00;99.90
39021;DHT22;25188;51.958;5.842;2023-12-29T08:42:58;10.00;99.90
39021;DHT22;25188;51.958;5.842;2023-12-29T08:45:23;10.10;99.90
39021;DHT22;25188;51.958;5.842;2023-12-29T08:47:49;10.10;99.90
39021;DHT22;25188;51.958;5.842;2023-12-29T08:50:15;10.10;99.90
39021;DHT22;25188;51.958;5.842;2023-12-29T08:52:41;10.20;99.90
39021;DHT22;25188;51.958;5.842;2023-12-29T08:55:07;10.20;99.90
39021;DHT22;25188;51.958;5.842;2023-12-29T08:57:33;10.30;99.90
39021;DHT22;25188;51.958;5.842;2023-12-29T08:59:59;10.30;99.90
39021;DHT22;25188;51.958;5.842;2023-12-29T09:02:25;10.30;99.90
39021;DHT22;25188;51.958;5.842;2023-12-29T09:04:52;10.30;99.90
39021;DHT22;25188;51.958;5.842;2023-12-29T09:07:17;10.40;99.90
39021;DHT22;25188;51.958;5.842;2023-12-29T09:09:43;10.40;99.90
39021;DHT22;25188;51.958;5.842;2023-12-29T09:12:09;10.40;99.90
39021;DHT22;25188;51.958;5.842;2023-12-29T09:14:34;10.50;99.90
39021;DHT22;25188;51.958;5.842;2023-12-29T09:17:01;10.50;99.90
39021;DHT22;25188;51.958;5.842;2023-12-29T09:19:26;10.50;99.90
39021;DHT22;25188;51.958;5.842;2023-12-29T09:21:52;10.50;99.90
39021;DHT22;25188;51.958;5.842;2023-12-29T09:24:18;10.60;99.90
39021;DHT22;25188;51.958;5.842;2023-12-29T09:26:43;10.60;99.90
39021;DHT22;25188;51.958;5.842;2023-12-29T09:29:09;10.60;99.90
39021;DHT22;25188;51.958;5.842;2023-12-29T09:31:35;10.70;99.90
39021;DHT22;25188;51.958;5.842;2023-12-29T09:34:02;10.70;99.90
39021;DHT22;25188;51.958;5.842;2023-12-29T09:36:27;10.70;99.90
39021;DHT22;25188;51.958;5.842;2023-12-29T09:38:53;10.70;99.90
39021;DHT22;25188;51.958;5.842;2023-12-29T09:41:20;10.70;99.90
39021;DHT22;25188;51.958;5.842;2023-12-29T09:43:49;10.70;99.90
39021;DHT22;25188;51.958;5.842;2023-12-29T09:46:19;10.70;99.90
39021;DHT22;25188;51.958;5.842;2023-12-29T09:48:47;10.80;99.90
39021;DHT22;25188;51.958;5.842;2023-12-29T09:51:14;10.80;99.90
39021;DHT22;25188;51.958;5.842;2023-12-29T09:53:41;10.80;99.90
39021;DHT22;25188;51.958;5.842;2023-12-29T09:56:08;10.80;99.90
39021;DHT22;25188;51.958;5.842;2023-12-29T09:58:37;10.90;99.90
39021;DHT22;25188;51.958;5.842;2023-12-29T10:01:06;10.90;99.90
39021;DHT22;25188;51.958;5.842;2023-12-29T10:03:34;10.90;99.90
39021;DHT22;25188;51.958;5.842;2023-12-29T10:06:03;11.00;99.90
39021;DHT22;25188;51.958;5.842;2023-12-29T10:08:34;11.00;99.90
39021;DHT22;25188;51.958;5.842;2023-12-29T10:11:00;11.10;99.90
39021;DHT22;25188;51.958;5.842;2023-12-29T10:13:29;11.10;99.90
39021;DHT22;25188;51.958;5.842;2023-12-29T10:16:13;11.10;99.90
39021;DHT22;25188;51.958;5.842;2023-12-29T10:21:29;11.30;99.90
39021;DHT22;25188;51.958;5.842;2023-12-29T10:26:21;11.40;99.90
39021;DHT22;25188;51.958;5.842;2023-12-29T10:28:47;11.40;99.90
39021;DHT22;25188;51.958;5.842;2023-12-29T10:31:15;11.40;99.90
39021;DHT22;25188;51.958;5.842;2023-12-29T10:33:44;11.40;99.90
39021;DHT22;25188;51.958;5.842;2023-12-29T10:36:15;11.40;99.90
39021;DHT22;25188;51.958;5.842;2023-12-29T10:38:41;11.40;99.90
39021;DHT22;25188;51.958;5.842;2023-12-29T10:41:17;11.40;99.90
39021;DHT22;25188;51.958;5.842;2023-12-29T10:43:48;11.40;99.90
39021;DHT22;25188;51.958;5.842;2023-12-29T10:46:17;11.50;99.90
39021;DHT22;25188;51.958;5.842;2023-12-29T10:48:43;11.60;99.90
39021;DHT22;25188;51.958;5.842;2023-12-29T10:51:10;11.60;99.90
39021;DHT22;25188;51.958;5.842;2023-12-29T10:53:36;11.70;99.90
39021;DHT22;25188;51.958;5.842;2023-12-29T10:56:02;11.70;99.90
39021;DHT22;25188;51.958;5.842;2023-12-29T10:58:29;11.70;99.90
39021;DHT22;25188;51.958;5.842;2023-12-29T11:00:58;11.80;99.90
39021;DHT22;25188;51.958;5.842;2023-12-29T11:03:27;11.90;99.90
39021;DHT22;25188;51.958;5.842;2023-12-29T11:05:59;12.00;99.90
39021;DHT22;25188;51.958;5.842;2023-12-29T11:08:28;12.10;99.90
39021;DHT22;25188;51.958;5.842;2023-12-29T11:10:54;12.20;99.90
39021;DHT22;25188;51.958;5.842;2023-12-29T11:13:21;12.20;99.90
39021;DHT22;25188;51.958;5.842;2023-12-29T11:15:48;12.20;99.90
39021;DHT22;25188;51.958;5.842;2023-12-29T11:18:15;12.20;99.90
39021;DHT22;25188;51.958;5.842;2023-12-29T11:20:42;12.30;99.90
39021;DHT22;25188;51.958;5.842;2023-12-29T11:23:09;12.40;99.90
39021;DHT22;25188;51.958;5.842;2023-12-29T11:25:35;12.60;99.90
39021;DHT22;25188;51.958;5.842;2023-12-29T11:28:01;12.70;99.90
39021;DHT22;25188;51.958;5.842;2023-12-29T11:30:27;12.70;99.00
39021;DHT22;25188;51.958;5.842;2023-12-29T11:33:19;12.70;97.90
39021;DHT22;25188;51.958;5.842;2023-12-29T11:36:15;12.80;97.50
39021;DHT22;25188;51.958;5.842;2023-12-29T11:42:10;12.80;96.50
39021;DHT22;25188;51.958;5.842;2023-12-29T11:44:39;12.70;96.30
39021;DHT22;25188;51.958;5.842;2023-12-29T11:47:05;12.70;96.40
39021;DHT22;25188;51.958;5.842;2023-12-29T11:50:00;12.70;96.10
39021;DHT22;25188;51.958;5.842;2023-12-29T11:55:13;12.70;96.10
39021;DHT22;25188;51.958;5.842;2023-12-29T11:57:40;12.70;95.90
39021;DHT22;25188;51.958;5.842;2023-12-29T12:00:07;12.70;95.90
39021;DHT22;25188;51.958;5.842;2023-12-29T12:02:34;12.60;95.70
39021;DHT22;25188;51.958;5.842;2023-12-29T12:05:00;12.60;95.30
39021;DHT22;25188;51.958;5.842;2023-12-29T12:12:45;12.60;95.30
39021;DHT22;25188;51.958;5.842;2023-12-29T12:17:59;12.40;95.50
39021;DHT22;25188;51.958;5.842;2023-12-29T12:20:25;12.40;95.60
39021;DHT22;25188;51.958;5.842;2023-12-29T12:23:15;12.40;95.50
39021;DHT22;25188;51.958;5.842;2023-12-29T12:25:45;12.40;95.50
39021;DHT22;25188;51.958;5.842;2023-12-29T12:28:14;12.40;95.50
39021;DHT22;25188;51.958;5.842;2023-12-29T12:30:40;12.40;95.70
39021;DHT22;25188;51.958;5.842;2023-12-29T12:33:05;12.40;95.80
39021;DHT22;25188;51.958;5.842;2023-12-29T12:35:31;12.40;95.80
39021;DHT22;25188;51.958;5.842;2023-12-29T12:40:33;12.40;95.90
39021;DHT22;25188;51.958;5.842;2023-12-29T12:42:59;12.40;96.00
39021;DHT22;25188;51.958;5.842;2023-12-29T12:45:26;12.40;96.00
39021;DHT22;25188;51.958;5.842;2023-12-29T12:48:03;12.50;96.20
39021;DHT22;25188;51.958;5.842;2023-12-29T12:50:35;12.50;95.90
39021;DHT22;25188;51.958;5.842;2023-12-29T12:53:01;12.50;95.80
39021;DHT22;25188;51.958;5.842;2023-12-29T12:55:35;12.50;95.80
39021;DHT22;25188;51.958;5.842;2023-12-29T12:58:01;12.40;95.80
39021;DHT22;25188;51.958;5.842;2023-12-29T13:00:28;12.40;95.90
39021;DHT22;25188;51.958;5.842;2023-12-29T13:02:54;12.40;95.90
39021;DHT22;25188;51.958;5.842;2023-12-29T13:05:20;12.40;96.00
39021;DHT22;25188;51.958;5.842;2023-12-29T13:07:46;12.40;95.90
39021;DHT22;25188;51.958;5.842;2023-12-29T13:10:12;12.40;95.90
39021;DHT22;25188;51.958;5.842;2023-12-29T13:12:38;12.40;96.00
39021;DHT22;25188;51.958;5.842;2023-12-29T13:15:07;12.40;96.10
39021;DHT22;25188;51.958;5.842;2023-12-29T13:17:36;12.40;96.00
39021;DHT22;25188;51.958;5.842;2023-12-29T13:20:02;12.40;95.90
39021;DHT22;25188;51.958;5.842;2023-12-29T13:22:30;12.30;95.90
39021;DHT22;25188;51.958;5.842;2023-12-29T13:24:55;12.30;96.00
39021;DHT22;25188;51.958;5.842;2023-12-29T13:27:22;12.30;96.10
39021;DHT22;25188;51.958;5.842;2023-12-29T13:29:48;12.30;96.10
39021;DHT22;25188;51.958;5.842;2023-12-29T13:32:24;12.30;96.20
39021;DHT22;25188;51.958;5.842;2023-12-29T13:35:03;12.30;96.20
39021;DHT22;25188;51.958;5.842;2023-12-29T13:42:46;12.20;96.40
39021;DHT22;25188;51.958;5.842;2023-12-29T13:45:14;12.10;96.40
39021;DHT22;25188;51.958;5.842;2023-12-29T13:47:41;12.10;96.50
39021;DHT22;25188;51.958;5.842;2023-12-29T13:50:09;12.00;96.50
39021;DHT22;25188;51.958;5.842;2023-12-29T13:52:36;11.90;96.60
39021;DHT22;25188;51.958;5.842;2023-12-29T13:55:04;11.90;96.80
39021;DHT22;25188;51.958;5.842;2023-12-29T13:57:35;11.90;97.00
39021;DHT22;25188;51.958;5.842;2023-12-29T14:05:35;11.80;97.30
39021;DHT22;25188;51.958;5.842;2023-12-29T14:10:34;11.80;97.70
39021;DHT22;25188;51.958;5.842;2023-12-29T14:15:37;11.80;98.00
39021;DHT22;25188;51.958;5.842;2023-12-29T14:21:27;11.80;98.20
39021;DHT22;25188;51.958;5.842;2023-12-29T14:24:13;11.80;98.30
39021;DHT22;25188;51.958;5.842;2023-12-29T14:29:20;11.70;98.70
39021;DHT22;25188;51.958;5.842;2023-12-29T14:31:47;11.70;98.80
39021;DHT22;25188;51.958;5.842;2023-12-29T14:34:13;11.70;98.90
39021;DHT22;25188;51.958;5.842;2023-12-29T14:36:41;11.60;99.50
39021;DHT22;25188;51.958;5.842;2023-12-29T14:39:07;11.50;99.90
39021;DHT22;25188;51.958;5.842;2023-12-29T14:41:36;11.30;99.90
39021;DHT22;25188;51.958;5.842;2023-12-29T14:44:02;11.10;99.90
39021;DHT22;25188;51.958;5.842;2023-12-29T14:46:28;10.90;99.90
39021;DHT22;25188;51.958;5.842;2023-12-29T14:48:54;10.80;99.90
39021;DHT22;25188;51.958;5.842;2023-12-29T14:51:21;10.70;99.90
39021;DHT22;25188;51.958;5.842;2023-12-29T14:53:48;10.60;99.90
39021;DHT22;25188;51.958;5.842;2023-12-29T14:56:15;10.50;99.90
39021;DHT22;25188;51.958;5.842;2023-12-29T14:58:41;10.40;99.90
39021;DHT22;25188;51.958;5.842;2023-12-29T15:01:07;10.40;99.90
39021;DHT22;25188;51.958;5.842;2023-12-29T15:03:34;10.40;99.90
39021;DHT22;25188;51.958;5.842;2023-12-29T15:06:00;10.30;99.90
39021;DHT22;25188;51.958;5.842;2023-12-29T15:08:26;10.30;99.90
39021;DHT22;25188;51.958;5.842;2023-12-29T15:10:54;10.20;99.90
39021;DHT22;25188;51.958;5.842;2023-12-29T15:13:20;10.20;99.90
39021;DHT22;25188;51.958;5.842;2023-12-29T15:15:47;10.20;99.90
39021;DHT22;25188;51.958;5.842;2023-12-29T15:18:13;10.20;99.90
39021;DHT22;25188;51.958;5.842;2023-12-29T15:20:39;10.10;99.90
39021;DHT22;25188;51.958;5.842;2023-12-29T15:23:04;10.10;99.90
39021;DHT22;25188;51.958;5.842;2023-12-29T15:25:30;10.10;99.90
39021;DHT22;25188;51.958;5.842;2023-12-29T15:27:56;10.10;99.90
39021;DHT22;25188;51.958;5.842;2023-12-29T15:30:21;10.10;99.90
39021;DHT22;25188;51.958;5.842;2023-12-29T15:32:47;10.10;99.90
39021;DHT22;25188;51.958;5.842;2023-12-29T15:35:13;10.10;99.90
39021;DHT22;25188;51.958;5.842;2023-12-29T15:37:38;10.10;99.90
39021;DHT22;25188;51.958;5.842;2023-12-29T15:40:04;10.10;99.90
39021;DHT22;25188;51.958;5.842;2023-12-29T15:42:30;10.10;99.90
39021;DHT22;25188;51.958;5.842;2023-12-29T15:44:56;10.10;99.90
39021;DHT22;25188;51.958;5.842;2023-12-29T15:47:22;10.10;99.90
39021;DHT22;25188;51.958;5.842;2023-12-29T15:49:47;10.10;99.90
39021;DHT22;25188;51.958;5.842;2023-12-29T15:52:13;10.10;99.90
39021;DHT22;25188;51.958;5.842;2023-12-29T15:54:39;10.10;99.90
39021;DHT22;25188;51.958;5.842;2023-12-29T15:57:05;10.10;99.90
39021;DHT22;25188;51.958;5.842;2023-12-29T15:59:34;10.10;99.90
39021;DHT22;25188;51.958;5.842;2023-12-29T16:02:00;10.10;99.90
39021;DHT22;25188;51.958;5.842;2023-12-29T16:04:26;10.10;99.90
39021;DHT22;25188;51.958;5.842;2023-12-29T16:06:54;10.10;99.90
39021;DHT22;25188;51.958;5.842;2023-12-29T16:09:20;10.20;99.90
39021;DHT22;25188;51.958;5.842;2023-12-29T16:11:45;10.10;99.90
39021;DHT22;25188;51.958;5.842;2023-12-29T16:14:12;10.10;99.90
39021;DHT22;25188;51.958;5.842;2023-12-29T16:16:41;10.20;99.90
39021;DHT22;25188;51.958;5.842;2023-12-29T16:19:06;10.10;99.90
39021;DHT22;25188;51.958;5.842;2023-12-29T16:21:36;10.10;99.90
39021;DHT22;25188;51.958;5.842;2023-12-29T16:24:03;10.10;99.90